createdAt,value
2022-08-18T00:01:06.498Z,21.17
2022-08-18T00:03:57.122Z,21.16
2022-08-18T00:06:22.946Z,21.21
2022-08-18T00:08:49.650Z,21.16
2022-08-18T00:11:20.459Z,21.21
2022-08-18T00:13:47.218Z,21.21
2022-08-18T00:16:13.983Z,21.23
2022-08-18T00:18:40.604Z,21.19
2022-08-18T00:21:08.675Z,21.14
2022-08-18T00:23:37.001Z,21.07
2022-08-18T00:26:03.957Z,21.02
2022-08-18T00:28:30.779Z,20.97
2022-08-18T00:30:57.541Z,20.88
2022-08-18T00:33:24.700Z,20.87
2022-08-18T00:35:51.453Z,20.87
2022-08-18T00:38:24.861Z,20.88
2022-08-18T00:40:56.998Z,20.75
2022-08-18T00:43:29.648Z,20.90
2022-08-18T00:45:57.596Z,20.86
2022-08-18T00:48:24.423Z,20.82
2022-08-18T00:50:55.535Z,20.80
2022-08-18T00:53:27.685Z,20.76
2022-08-18T00:55:58.967Z,20.76
2022-08-18T00:58:32.325Z,20.76
2022-08-18T01:01:04.930Z,20.73
2022-08-18T01:03:35.301Z,20.72
2022-08-18T01:06:07.181Z,20.78
2022-08-18T01:08:35.750Z,20.79
2022-08-18T01:11:04.578Z,20.79
2022-08-18T01:13:33.397Z,20.76
2022-08-18T01:16:00.703Z,20.86
2022-08-18T01:18:27.574Z,20.75
2022-08-18T01:21:03.283Z,20.71
2022-08-18T01:23:31.799Z,20.68
2022-08-18T01:25:58.416Z,20.70
2022-08-18T01:28:25.470Z,20.75
2022-08-18T01:30:58.261Z,20.75
2022-08-18T01:33:30.268Z,20.83
2022-08-18T01:35:58.218Z,20.85
2022-08-18T01:38:25.359Z,20.80
2022-08-18T01:41:25.077Z,20.75
2022-08-18T01:43:41.293Z,20.73
2022-08-18T01:46:08.886Z,20.68
2022-08-18T01:48:37.172Z,20.72
2022-08-18T01:51:06.828Z,20.68
2022-08-18T01:53:34.004Z,20.69
2022-08-18T01:56:05.828Z,20.67
2022-08-18T01:58:32.950Z,20.57
2022-08-18T02:01:00.730Z,20.73
2022-08-18T02:03:32.836Z,20.76
2022-08-18T02:06:04.799Z,20.86
2022-08-18T02:08:31.888Z,20.92
2022-08-18T02:11:00.511Z,21.02
2022-08-18T02:13:29.705Z,21.16
2022-08-18T02:15:59.575Z,21.21
2022-08-18T02:18:47.264Z,21.29
2022-08-18T02:21:18.995Z,21.38
2022-08-18T02:23:53.717Z,21.36
2022-08-18T02:26:21.643Z,21.34
2022-08-18T02:28:50.704Z,21.50
2022-08-18T02:31:20.672Z,21.49
2022-08-18T02:33:52.245Z,21.40
2022-08-18T02:36:20.333Z,21.39
2022-08-18T02:38:56.590Z,21.12
2022-08-18T02:41:27.354Z,21.37
2022-08-18T02:44:00.460Z,21.53
2022-08-18T02:46:31.084Z,21.57
2022-08-18T02:48:59.864Z,21.60
2022-08-18T02:51:26.832Z,21.54
2022-08-18T02:53:54.259Z,21.53
2022-08-18T02:56:32.954Z,21.50
2022-08-18T02:59:12.578Z,21.63
2022-08-18T03:01:45.693Z,21.72
2022-08-18T03:04:14.794Z,21.76
2022-08-18T03:06:42.336Z,21.75
2022-08-18T03:09:11.751Z,21.75
2022-08-18T03:11:38.732Z,21.72
2022-08-18T03:14:06.287Z,21.68
2022-08-18T03:16:42.602Z,21.78
2022-08-18T03:19:21.059Z,21.77
2022-08-18T03:21:49.294Z,21.64
2022-08-18T03:24:22.317Z,21.68
2022-08-18T03:26:52.523Z,21.76
2022-08-18T03:29:19.331Z,21.68
2022-08-18T03:31:50.366Z,21.73
2022-08-18T03:34:19.986Z,21.73
2022-08-18T03:36:47.084Z,21.64
2022-08-18T03:39:13.902Z,21.63
2022-08-18T03:41:59.509Z,21.51
2022-08-18T03:44:32.613Z,21.53
2022-08-18T03:47:01.719Z,21.58
2022-08-18T03:49:28.468Z,21.42
2022-08-18T03:51:55.629Z,21.30
2022-08-18T03:54:23.063Z,21.33
2022-08-18T03:56:49.925Z,21.28
2022-08-18T03:59:19.578Z,21.18
2022-08-18T04:01:47.954Z,21.25
2022-08-18T04:04:21.972Z,21.39
2022-08-18T04:06:51.267Z,21.32
2022-08-18T04:09:19.858Z,21.28
2022-08-18T04:11:47.612Z,21.35
2022-08-18T04:14:19.602Z,21.31
2022-08-18T04:16:50.193Z,21.36
2022-08-18T04:19:27.633Z,21.36
2022-08-18T04:21:57.430Z,21.31
2022-08-18T04:24:25.727Z,21.33
2022-08-18T04:26:52.364Z,21.43
2022-08-18T04:29:20.871Z,21.51
2022-08-18T04:31:48.654Z,21.39
2022-08-18T04:34:16.168Z,21.43
2022-08-18T04:36:44.750Z,21.47
2022-08-18T04:39:13.488Z,21.36
2022-08-18T04:41:44.483Z,21.54
2022-08-18T04:44:12.916Z,21.55
2022-08-18T04:46:42.320Z,21.51
2022-08-18T04:49:09.861Z,21.49
2022-08-18T04:54:51.573Z,21.60
2022-08-18T04:57:20.331Z,21.73
2022-08-18T04:59:50.202Z,21.70
2022-08-18T05:02:18.273Z,21.79
2022-08-18T05:04:45.964Z,21.83
2022-08-18T05:07:14.802Z,21.85
2022-08-18T05:09:42.170Z,21.82
2022-08-18T05:12:12.682Z,21.93
2022-08-18T05:14:39.902Z,21.94
2022-08-18T05:17:06.540Z,22.02
2022-08-18T05:19:33.231Z,22.14
2022-08-18T05:22:02.856Z,22.27
2022-08-18T05:24:37.332Z,22.32
2022-08-18T05:27:05.336Z,22.20
2022-08-18T05:29:51.817Z,22.35
2022-08-18T05:32:41.155Z,22.45
2022-08-18T05:35:11.148Z,22.48
2022-08-18T05:37:49.841Z,22.53
2022-08-18T05:40:23.314Z,22.66
2022-08-18T05:42:49.953Z,22.71
2022-08-18T05:45:19.375Z,22.83
2022-08-18T05:47:46.190Z,22.83
2022-08-18T05:50:18.366Z,22.89
2022-08-18T05:52:52.688Z,22.96
2022-08-18T05:55:25.951Z,23.04
2022-08-18T05:57:58.210Z,23.01
2022-08-18T06:00:43.980Z,23.13
2022-08-18T06:03:17.015Z,23.24
2022-08-18T06:05:49.646Z,23.42
2022-08-18T06:08:24.457Z,23.53
2022-08-18T06:10:51.454Z,23.58
2022-08-18T06:13:20.872Z,23.46
2022-08-18T06:16:01.999Z,23.41
2022-08-18T06:18:43.601Z,23.41
2022-08-18T06:21:31.963Z,23.30
2022-08-18T06:24:10.389Z,23.46
2022-08-18T06:26:44.777Z,23.53
2022-08-18T06:29:27.074Z,23.46
2022-08-18T06:32:05.589Z,23.34
2022-08-18T06:34:40.660Z,23.41
2022-08-18T06:37:16.821Z,23.55
2022-08-18T06:39:51.259Z,23.60
2022-08-18T06:42:19.462Z,23.53
2022-08-18T06:44:48.785Z,23.49
2022-08-18T06:47:24.857Z,23.36
2022-08-18T06:50:00.281Z,23.34
2022-08-18T06:52:29.469Z,23.38
2022-08-18T06:54:58.579Z,23.37
2022-08-18T06:57:29.940Z,23.26
2022-08-18T07:00:05.593Z,23.20
2022-08-18T07:02:54.138Z,23.25
2022-08-18T07:05:26.417Z,23.22
2022-08-18T07:08:06.333Z,23.19
2022-08-18T07:10:37.035Z,23.21
2022-08-18T07:13:08.205Z,23.15
2022-08-18T07:15:37.647Z,23.14
2022-08-18T07:18:08.459Z,23.00
2022-08-18T07:20:44.938Z,23.05
2022-08-18T07:23:24.962Z,23.12
2022-08-18T07:26:02.183Z,23.09
2022-08-18T07:28:31.396Z,23.14
2022-08-18T07:31:21.051Z,23.04
2022-08-18T07:33:57.187Z,23.10
2022-08-18T07:36:27.000Z,23.10
2022-08-18T07:38:58.387Z,23.15
2022-08-18T07:41:31.642Z,23.15
2022-08-18T07:44:13.580Z,23.21
2022-08-18T07:46:48.317Z,23.27
2022-08-18T07:49:22.606Z,23.26
2022-08-18T07:51:54.064Z,23.29
2022-08-18T07:54:51.040Z,23.37
2022-08-18T07:57:28.426Z,23.53
2022-08-18T08:00:03.900Z,23.48
2022-08-18T08:02:40.323Z,23.45
2022-08-18T08:05:18.022Z,23.60
2022-08-18T08:07:51.151Z,23.67
2022-08-18T08:10:36.277Z,23.62
2022-08-18T08:13:12.453Z,23.80
2022-08-18T08:15:50.525Z,24.11
2022-08-18T08:18:33.188Z,24.58
2022-08-18T08:21:06.453Z,24.71
2022-08-18T08:23:45.062Z,25.07
2022-08-18T08:26:36.687Z,25.80
2022-08-18T08:29:14.565Z,26.75
2022-08-18T08:31:49.998Z,27.37
2022-08-18T08:34:20.676Z,27.46
2022-08-18T08:36:58.242Z,27.45
2022-08-18T08:39:40.083Z,27.77
2022-08-18T08:42:30.495Z,28.11
2022-08-18T08:45:05.332Z,28.23
2022-08-18T08:47:40.710Z,28.18
2022-08-18T08:50:12.515Z,28.42
2022-08-18T08:52:46.566Z,28.94
2022-08-18T08:55:20.560Z,29.13
2022-08-18T08:57:51.068Z,29.12
2022-08-18T09:00:18.843Z,29.19
2022-08-18T09:03:13.255Z,29.46
2022-08-18T09:05:51.105Z,29.07
2022-08-18T09:08:48.064Z,28.97
2022-08-18T09:11:41.841Z,29.13
2022-08-18T09:14:39.236Z,29.21
2022-08-18T09:17:34.318Z,29.51
2022-08-18T09:20:37.643Z,30.20
2022-08-18T09:23:08.570Z,30.58
2022-08-18T09:25:51.655Z,30.42
2022-08-18T09:28:21.011Z,30.25
2022-08-18T09:31:09.241Z,29.98
2022-08-18T09:34:10.882Z,29.42
2022-08-18T09:36:54.929Z,28.91
2022-08-18T09:39:31.197Z,28.86
2022-08-18T09:42:12.508Z,28.83
2022-08-18T09:45:01.797Z,28.86
2022-08-18T09:48:00.222Z,29.46
2022-08-18T09:50:53.621Z,30.01
2022-08-18T09:53:53.167Z,30.44
2022-08-18T09:56:58.815Z,31.14
2022-08-18T10:00:17.393Z,31.33
2022-08-18T10:03:07.650Z,31.00
2022-08-18T10:05:36.050Z,30.97
2022-08-18T10:08:34.573Z,30.53
2022-08-18T10:11:22.521Z,30.44
2022-08-18T10:14:07.605Z,30.57
2022-08-18T10:17:21.786Z,30.06
2022-08-18T10:19:54.011Z,30.26
2022-08-18T10:22:37.622Z,30.53
2022-08-18T10:27:54.169Z,31.07
2022-08-18T10:31:06.547Z,30.76
2022-08-18T10:34:17.040Z,29.90
2022-08-18T10:36:50.040Z,29.59
2022-08-18T10:39:19.835Z,29.93
2022-08-18T10:42:00.186Z,30.07
2022-08-18T10:44:31.033Z,30.08
2022-08-18T10:47:00.051Z,29.98
2022-08-18T10:49:31.751Z,30.06
2022-08-18T10:52:34.966Z,30.02
2022-08-18T10:55:47.710Z,30.46
2022-08-18T10:58:35.027Z,30.89
2022-08-18T11:01:11.392Z,31.27
2022-08-18T11:03:56.337Z,31.38
2022-08-18T11:06:25.404Z,31.18
2022-08-18T11:08:58.220Z,31.66
2022-08-18T11:11:34.617Z,31.75
2022-08-18T11:14:15.750Z,32.08
2022-08-18T11:16:58.558Z,32.52
2022-08-18T11:19:25.655Z,32.83
2022-08-18T11:21:54.624Z,32.54
2022-08-18T11:24:24.868Z,32.20
2022-08-18T11:26:55.384Z,31.76
2022-08-18T11:29:33.301Z,31.72
2022-08-18T11:32:11.312Z,31.72
2022-08-18T11:34:52.056Z,31.54
2022-08-18T11:37:26.044Z,31.82
2022-08-18T11:39:56.944Z,32.17
2022-08-18T11:42:29.210Z,32.13
2022-08-18T11:45:05.844Z,32.17
2022-08-18T11:47:37.661Z,31.87
2022-08-18T11:50:10.877Z,31.74
2022-08-18T11:52:54.009Z,31.91
2022-08-18T11:55:29.423Z,32.15
2022-08-18T11:57:59.740Z,32.54
2022-08-18T12:00:53.685Z,32.15
2022-08-18T12:03:28.483Z,31.91
2022-08-18T12:05:58.438Z,31.40
2022-08-18T12:08:56.590Z,31.26
2022-08-18T12:11:27.228Z,31.07
2022-08-18T12:14:32.251Z,30.74
2022-08-18T12:16:54.086Z,30.71
2022-08-18T12:19:22.438Z,30.62
2022-08-18T12:21:53.419Z,30.75
2022-08-18T12:24:36.922Z,30.55
2022-08-18T12:27:12.290Z,30.41
2022-08-18T12:29:47.684Z,30.31
2022-08-18T12:32:46.619Z,29.78
2022-08-18T12:35:09.585Z,30.29
2022-08-18T12:40:32.958Z,29.78
2022-08-18T12:42:59.815Z,29.84
2022-08-18T12:45:28.979Z,29.66
2022-08-18T12:47:56.340Z,30.12
2022-08-18T12:50:30.797Z,30.01
2022-08-18T12:52:59.734Z,30.18
2022-08-18T12:55:27.987Z,30.65
2022-08-18T12:57:56.563Z,30.82
2022-08-18T13:03:12.797Z,30.74
2022-08-18T13:05:39.662Z,30.90
2022-08-18T13:08:30.214Z,30.56
2022-08-18T13:11:00.356Z,30.82
2022-08-18T13:13:46.970Z,31.01
2022-08-18T13:16:30.645Z,31.71
2022-08-18T13:19:06.669Z,31.77
2022-08-18T13:21:39.095Z,31.68
2022-08-18T13:24:09.948Z,31.83
2022-08-18T13:26:45.668Z,31.65
2022-08-18T13:29:15.333Z,31.92
2022-08-18T13:31:55.971Z,30.65
2022-08-18T13:34:24.859Z,31.27
2022-08-18T13:36:52.266Z,31.35
2022-08-18T13:39:22.219Z,31.27
2022-08-18T13:41:52.769Z,31.45
2022-08-18T13:44:22.291Z,31.77
2022-08-18T13:46:52.894Z,31.54
2022-08-18T13:49:23.888Z,32.08
2022-08-18T13:52:00.718Z,31.64
2022-08-18T13:54:34.017Z,31.91
2022-08-18T13:57:02.499Z,31.92
2022-08-18T13:59:30.594Z,31.86
2022-08-18T14:02:00.816Z,31.81
2022-08-18T14:04:32.105Z,31.74
2022-08-18T14:07:07.254Z,31.80
2022-08-18T14:09:38.270Z,30.89
2022-08-18T14:12:07.088Z,30.30
2022-08-18T14:14:48.230Z,29.51
2022-08-18T14:17:15.025Z,29.30
2022-08-18T14:19:42.207Z,28.87
2022-08-18T14:22:11.202Z,28.76
2022-08-18T14:24:39.734Z,28.94
2022-08-18T14:27:07.041Z,29.40
2022-08-18T14:29:45.839Z,29.01
2022-08-18T14:32:28.513Z,29.07
2022-08-18T14:35:00.841Z,29.26
2022-08-18T14:37:40.724Z,29.48
2022-08-18T14:40:10.482Z,29.52
2022-08-18T14:42:41.840Z,29.77
2022-08-18T14:45:31.266Z,29.31
2022-08-18T14:48:07.323Z,29.11
2022-08-18T14:50:44.737Z,28.95
2022-08-18T14:53:17.243Z,29.60
2022-08-18T14:55:46.304Z,30.08
2022-08-18T14:58:16.526Z,30.23
2022-08-18T15:00:53.436Z,30.37
2022-08-18T15:03:40.609Z,30.37
2022-08-18T15:06:08.486Z,30.62
2022-08-18T15:08:53.383Z,30.61
2022-08-18T15:11:23.954Z,30.57
2022-08-18T15:13:51.680Z,30.07
2022-08-18T15:19:58.287Z,29.62
2022-08-18T15:21:54.989Z,29.77
2022-08-18T15:24:22.411Z,30.13
2022-08-18T15:26:56.853Z,29.96
2022-08-18T15:29:30.730Z,30.06
2022-08-18T15:32:05.151Z,30.19
2022-08-18T15:34:46.399Z,29.90
2022-08-18T15:37:14.865Z,29.56
2022-08-18T15:39:41.598Z,29.54
2022-08-18T15:42:10.652Z,30.01
2022-08-18T15:44:38.158Z,29.41
2022-08-18T15:47:05.142Z,29.47
2022-08-18T15:49:31.818Z,29.58
2022-08-18T15:52:02.561Z,29.65
2022-08-18T15:54:29.396Z,29.46
2022-08-18T15:56:58.446Z,29.62
2022-08-18T15:59:34.107Z,29.69
2022-08-18T16:02:11.730Z,29.87
2022-08-18T16:04:45.100Z,29.18
2022-08-18T16:07:14.648Z,29.26
2022-08-18T16:09:44.634Z,28.46
2022-08-18T16:12:12.848Z,28.33
2022-08-18T16:14:40.096Z,28.89
2022-08-18T16:17:09.438Z,28.98
2022-08-18T16:19:46.390Z,28.96
2022-08-18T16:22:15.007Z,28.62
2022-08-18T16:24:41.623Z,28.74
2022-08-18T16:27:08.408Z,28.43
2022-08-18T16:29:35.230Z,28.48
2022-08-18T16:32:01.878Z,28.50
2022-08-18T16:34:31.468Z,28.12
2022-08-18T16:36:58.248Z,28.21
2022-08-18T16:39:27.199Z,28.09
2022-08-18T16:41:55.043Z,28.12
2022-08-18T16:44:22.060Z,28.74
2022-08-18T16:46:48.809Z,28.87
2022-08-18T16:49:15.434Z,28.55
2022-08-18T16:51:42.075Z,28.98
2022-08-18T16:54:09.741Z,28.95
2022-08-18T16:56:43.260Z,29.07
2022-08-18T16:59:11.017Z,28.99
2022-08-18T17:01:49.147Z,29.00
2022-08-18T17:04:20.877Z,28.89
2022-08-18T17:06:51.658Z,28.86
2022-08-18T17:09:20.397Z,29.21
2022-08-18T17:11:52.078Z,29.05
2022-08-18T17:14:22.090Z,28.87
2022-08-18T17:16:50.364Z,29.11
2022-08-18T17:19:18.838Z,28.89
2022-08-18T17:21:47.858Z,28.86
2022-08-18T17:27:25.771Z,28.93
2022-08-18T17:30:02.199Z,28.76
2022-08-18T17:37:56.777Z,28.66
2022-08-18T17:40:36.974Z,28.65
2022-08-18T17:43:25.991Z,28.60
2022-08-18T17:45:55.735Z,28.61
2022-08-18T17:48:27.394Z,28.56
2022-08-18T17:50:58.714Z,28.58
2022-08-18T17:53:26.613Z,28.56
2022-08-18T17:56:01.886Z,28.33
2022-08-18T17:58:36.108Z,28.35
2022-08-18T18:01:02.980Z,28.29
2022-08-18T18:03:29.793Z,28.16
2022-08-18T18:08:50.366Z,28.25
2022-08-18T18:11:17.147Z,28.24
2022-08-18T18:13:45.179Z,28.19
2022-08-18T18:16:28.451Z,28.10
2022-08-18T18:18:59.916Z,27.95
2022-08-18T18:21:55.315Z,27.83
2022-08-18T18:24:16.978Z,27.83
2022-08-18T18:26:50.812Z,27.68
2022-08-18T18:29:27.215Z,27.56
2022-08-18T18:31:59.223Z,27.50
2022-08-18T18:34:32.444Z,27.50
2022-08-18T18:37:01.584Z,27.44
2022-08-18T18:39:33.199Z,27.45
2022-08-18T18:42:14.897Z,27.45
2022-08-18T18:44:50.751Z,27.38
2022-08-18T18:47:47.610Z,27.28
2022-08-18T18:50:24.497Z,27.19
2022-08-18T18:53:02.164Z,27.13
2022-08-18T18:55:41.389Z,27.09
2022-08-18T18:58:17.910Z,27.03
2022-08-18T19:00:58.452Z,27.02
2022-08-18T19:03:39.817Z,26.99
2022-08-18T19:06:21.458Z,27.05
2022-08-18T19:09:00.415Z,26.93
2022-08-18T19:11:36.491Z,26.93
2022-08-18T19:14:09.039Z,26.95
2022-08-18T19:16:41.620Z,26.89
2022-08-18T19:19:38.464Z,26.80
2022-08-18T19:22:10.726Z,26.54
2022-08-18T19:24:46.316Z,26.54
2022-08-18T19:27:23.644Z,26.27
2022-08-18T19:29:54.716Z,26.09
2022-08-18T19:32:30.179Z,25.87
2022-08-18T19:34:58.395Z,25.91
2022-08-18T19:37:31.407Z,25.84
2022-08-18T19:40:04.851Z,25.65
2022-08-18T19:42:38.753Z,25.55
2022-08-18T19:45:16.900Z,25.56
2022-08-18T19:47:51.010Z,25.51
2022-08-18T19:50:25.976Z,25.46
2022-08-18T19:53:09.380Z,25.34
2022-08-18T19:55:54.256Z,25.30
2022-08-18T19:59:04.772Z,25.21
2022-08-18T20:01:42.970Z,25.20
2022-08-18T20:04:26.296Z,25.05
2022-08-18T20:07:27.754Z,24.94
2022-08-18T20:10:08.896Z,24.93
2022-08-18T20:12:51.518Z,25.02
2022-08-18T20:15:21.924Z,24.92
2022-08-18T20:18:20.954Z,24.91
2022-08-18T20:21:20.949Z,24.92
2022-08-18T20:24:00.912Z,24.82
2022-08-18T20:26:45.400Z,24.76
2022-08-18T20:29:16.468Z,24.71
2022-08-18T20:31:57.903Z,24.65
2022-08-18T20:34:37.753Z,24.66
2022-08-18T20:37:08.445Z,24.61
2022-08-18T20:39:45.061Z,24.63
2022-08-18T20:42:43.006Z,24.58
2022-08-18T20:45:34.139Z,24.49
2022-08-18T20:48:20.794Z,24.46
2022-08-18T20:51:00.146Z,24.30
2022-08-18T20:53:57.656Z,24.27
2022-08-18T20:56:43.567Z,24.23
2022-08-18T20:59:17.032Z,24.25
2022-08-18T21:02:01.754Z,24.17
2022-08-18T21:04:52.612Z,24.13
2022-08-18T21:07:36.685Z,24.06
2022-08-18T21:13:51.337Z,24.08
2022-08-18T21:16:38.682Z,24.03
2022-08-18T21:19:09.237Z,23.92
2022-08-18T21:21:40.367Z,23.92
2022-08-18T21:24:26.580Z,23.80
2022-08-18T21:26:56.125Z,23.87
2022-08-18T21:29:46.918Z,23.87
2022-08-18T21:32:19.818Z,23.80
2022-08-18T21:34:57.314Z,23.66
2022-08-18T21:37:24.314Z,23.58
2022-08-18T21:39:53.770Z,23.62
2022-08-18T21:42:23.930Z,23.55
2022-08-18T21:44:53.941Z,23.49
2022-08-18T21:47:23.866Z,23.46
2022-08-18T21:50:01.704Z,23.39
2022-08-18T21:52:30.346Z,23.30
2022-08-18T21:55:01.870Z,23.23
2022-08-18T21:57:47.162Z,23.17
2022-08-18T22:00:19.495Z,23.16
2022-08-18T22:02:46.991Z,23.06
2022-08-18T22:05:26.209Z,23.15
2022-08-18T22:07:53.172Z,23.17
2022-08-18T22:10:25.735Z,23.04
2022-08-18T22:12:54.462Z,23.09
2022-08-18T22:15:39.322Z,23.11
2022-08-18T22:18:33.555Z,22.94
2022-08-18T22:21:02.068Z,22.77
2022-08-18T22:23:41.776Z,22.81
2022-08-18T22:26:12.486Z,22.80
2022-08-18T22:29:00.818Z,22.86
2022-08-18T22:31:31.943Z,22.68
2022-08-18T22:34:02.362Z,22.73
2022-08-18T22:36:34.508Z,22.77
2022-08-18T22:39:01.519Z,22.77
2022-08-18T22:41:34.905Z,22.68
2022-08-18T22:44:01.773Z,22.66
2022-08-18T22:46:29.822Z,22.60
2022-08-18T22:48:56.539Z,22.67
2022-08-18T22:51:27.044Z,22.64
2022-08-18T22:53:54.584Z,22.65
2022-08-18T22:56:26.454Z,22.67
2022-08-18T22:59:05.423Z,22.60
2022-08-18T23:01:43.140Z,22.60
2022-08-18T23:04:09.889Z,22.65
2022-08-18T23:06:36.596Z,22.67
2022-08-18T23:09:06.696Z,22.68
2022-08-18T23:11:35.786Z,22.65
2022-08-18T23:14:02.873Z,22.62
2022-08-18T23:16:31.999Z,22.54
2022-08-18T23:19:04.351Z,22.46
2022-08-18T23:21:35.009Z,22.49
2022-08-18T23:24:05.979Z,22.47
2022-08-18T23:26:32.791Z,22.43
2022-08-18T23:29:03.420Z,22.39
2022-08-18T23:31:38.096Z,22.32
2022-08-18T23:34:08.170Z,22.43
2022-08-18T23:36:35.119Z,22.51
2022-08-18T23:39:01.894Z,22.52
2022-08-18T23:41:28.691Z,22.50
2022-08-18T23:43:57.612Z,22.42
2022-08-18T23:46:30.403Z,22.44
2022-08-18T23:49:07.623Z,22.33
2022-08-18T23:51:44.685Z,22.48
2022-08-18T23:54:14.588Z,22.45
2022-08-18T23:56:41.441Z,22.34
2022-08-18T23:59:08.575Z,22.36
